createdAt,value
2022-09-16T00:01:19.746Z,17.55
2022-09-16T00:05:25.187Z,17.57
2022-09-16T00:07:27.474Z,17.54
2022-09-16T00:09:29.755Z,17.55
2022-09-16T00:11:34.780Z,17.52
2022-09-16T00:13:36.953Z,17.53
2022-09-16T00:17:46.605Z,17.45
2022-09-16T00:19:50.828Z,17.47
2022-09-16T00:23:57.557Z,17.39
2022-09-16T00:28:04.568Z,17.34
2022-09-16T00:32:14.152Z,17.24
2022-09-16T00:34:17.536Z,17.25
2022-09-16T00:38:25.682Z,17.16
2022-09-16T00:40:29.154Z,17.15
2022-09-16T00:46:48.375Z,17.18
2022-09-16T00:48:50.824Z,17.17
2022-09-16T00:50:55.968Z,17.16
2022-09-16T00:55:06.864Z,17.11
2022-09-16T00:57:11.511Z,17.15
2022-09-16T00:59:16.713Z,17.15
2022-09-16T01:01:19.529Z,17.03
2022-09-16T01:03:22.439Z,17.02
2022-09-16T01:05:26.945Z,17.02
2022-09-16T01:07:31.951Z,17.01
2022-09-16T01:09:34.812Z,16.97
2022-09-16T01:11:36.923Z,16.89
2022-09-16T01:13:41.330Z,16.93
2022-09-16T01:17:55.810Z,16.85
2022-09-16T01:20:04.624Z,16.87
2022-09-16T01:22:16.147Z,16.87
2022-09-16T01:24:24.129Z,16.86
2022-09-16T01:26:37.535Z,16.80
2022-09-16T01:28:43.724Z,16.77
2022-09-16T01:30:51.593Z,16.78
2022-09-16T01:33:00.420Z,16.72
2022-09-16T01:35:10.990Z,16.68
2022-09-16T01:39:25.389Z,16.63
2022-09-16T01:41:44.953Z,16.54
2022-09-16T01:43:51.062Z,16.44
2022-09-16T01:45:59.262Z,16.51
2022-09-16T01:48:01.750Z,16.45
2022-09-16T01:50:09.467Z,16.46
2022-09-16T01:52:16.212Z,16.42
2022-09-16T01:54:32.719Z,16.37
2022-09-16T01:58:44.982Z,16.35
2022-09-16T02:00:50.085Z,16.32
2022-09-16T02:05:03.804Z,16.28
2022-09-16T02:07:10.280Z,16.27
2022-09-16T02:09:20.106Z,16.21
2022-09-16T02:11:22.909Z,16.19
2022-09-16T02:13:29.425Z,16.12
2022-09-16T02:15:34.828Z,16.11
2022-09-16T02:17:43.752Z,16.07
2022-09-16T02:19:49.840Z,16.07
2022-09-16T02:21:56.310Z,16.03
2022-09-16T02:24:02.648Z,15.98
2022-09-16T02:28:16.884Z,16.02
2022-09-16T02:30:20.634Z,15.94
2022-09-16T02:32:26.978Z,15.95
2022-09-16T02:34:32.871Z,15.95
2022-09-16T02:38:44.708Z,15.93
2022-09-16T02:42:50.608Z,15.86
2022-09-16T02:44:53.324Z,15.86
2022-09-16T02:47:02.140Z,15.79
2022-09-16T02:49:11.061Z,15.78
2022-09-16T02:53:33.119Z,15.74
2022-09-16T02:57:44.283Z,15.71
2022-09-16T03:01:52.832Z,15.73
2022-09-16T03:03:57.646Z,15.75
2022-09-16T03:08:15.443Z,15.73
2022-09-16T03:12:29.136Z,15.70
2022-09-16T03:14:40.178Z,15.66
2022-09-16T03:16:51.665Z,15.65
2022-09-16T03:19:04.463Z,15.67
2022-09-16T03:21:16.900Z,15.72
2022-09-16T03:25:26.529Z,15.74
2022-09-16T03:27:32.252Z,15.67
2022-09-16T03:29:45.723Z,15.71
2022-09-16T03:31:58.263Z,15.69
2022-09-16T03:38:15.142Z,15.79
2022-09-16T03:42:20.912Z,15.76
2022-09-16T03:44:34.918Z,15.75
2022-09-16T03:50:44.427Z,15.67
2022-09-16T03:52:48.087Z,15.61
2022-09-16T03:54:50.278Z,15.59
2022-09-16T03:56:53.930Z,15.57
2022-09-16T04:01:02.427Z,15.68
2022-09-16T04:05:11.080Z,15.64
2022-09-16T04:07:14.297Z,15.63
2022-09-16T04:09:16.779Z,15.62
2022-09-16T04:11:19.768Z,15.62
2022-09-16T04:13:22.142Z,15.57
2022-09-16T04:15:24.483Z,15.55
2022-09-16T04:21:32.344Z,15.45
2022-09-16T04:23:36.845Z,15.46
2022-09-16T04:25:42.123Z,15.46
2022-09-16T04:27:45.142Z,15.48
2022-09-16T04:31:51.796Z,15.46
2022-09-16T04:38:06.205Z,15.39
2022-09-16T04:40:08.943Z,15.41
2022-09-16T04:44:15.491Z,15.42
2022-09-16T04:46:17.587Z,15.39
2022-09-16T04:48:21.194Z,15.40
2022-09-16T04:52:26.284Z,15.39
2022-09-16T04:58:38.298Z,15.29
2022-09-16T05:02:49.802Z,15.28
2022-09-16T05:04:53.448Z,15.28
2022-09-16T05:06:55.750Z,15.29
2022-09-16T05:09:01.050Z,15.25
2022-09-16T05:11:08.924Z,15.18
2022-09-16T05:15:17.852Z,15.16
2022-09-16T05:17:46.458Z,15.22
2022-09-16T05:19:42.882Z,15.14
2022-09-16T05:23:49.066Z,15.09
2022-09-16T05:25:51.542Z,15.07
2022-09-16T05:27:56.482Z,15.06
2022-09-16T05:32:03.721Z,15.03
2022-09-16T05:34:14.430Z,15.00
2022-09-16T05:36:18.864Z,14.99
2022-09-16T05:40:26.418Z,14.97
2022-09-16T05:44:32.452Z,14.90
2022-09-16T05:48:38.624Z,14.93
2022-09-16T05:50:41.215Z,14.90
2022-09-16T05:52:45.049Z,14.90
2022-09-16T05:54:48.344Z,14.90
2022-09-16T05:56:52.588Z,14.86
2022-09-16T06:03:07.061Z,14.82
2022-09-16T06:09:20.994Z,14.79
2022-09-16T06:17:32.541Z,14.80
2022-09-16T06:19:35.000Z,14.75
2022-09-16T06:23:42.037Z,14.79
2022-09-16T06:25:44.277Z,14.80
2022-09-16T06:29:53.837Z,14.83
2022-09-16T06:31:58.978Z,14.86
2022-09-16T06:34:02.837Z,14.84
2022-09-16T06:40:11.887Z,14.81
2022-09-16T06:42:13.600Z,14.85
2022-09-16T06:44:15.801Z,14.90
2022-09-16T06:46:26.752Z,14.89
2022-09-16T06:48:39.649Z,14.87
2022-09-16T06:50:43.628Z,14.86
2022-09-16T06:52:45.288Z,14.90
2022-09-16T06:54:48.195Z,14.90
2022-09-16T06:56:50.534Z,14.96
2022-09-16T07:02:07.241Z,14.96
2022-09-16T07:04:13.703Z,15.04
2022-09-16T07:06:17.406Z,15.05
2022-09-16T07:08:19.530Z,15.03
2022-09-16T07:12:26.349Z,15.04
2022-09-16T07:14:29.376Z,15.07
2022-09-16T07:16:31.604Z,15.13
2022-09-16T07:18:34.549Z,15.13
2022-09-16T07:20:36.820Z,15.15
2022-09-16T07:24:41.626Z,15.18
2022-09-16T07:26:44.810Z,15.24
2022-09-16T07:28:49.033Z,15.23
2022-09-16T07:30:51.356Z,15.20
2022-09-16T07:32:53.747Z,15.22
2022-09-16T07:34:56.048Z,15.26
2022-09-16T07:37:00.108Z,15.31
2022-09-16T07:43:11.359Z,15.37
2022-09-16T07:45:13.134Z,15.36
2022-09-16T07:47:17.800Z,15.36
2022-09-16T07:49:23.668Z,15.45
2022-09-16T07:51:26.927Z,15.42
2022-09-16T07:53:30.047Z,15.44
2022-09-16T07:55:32.304Z,15.52
2022-09-16T07:59:35.264Z,15.60
2022-09-16T08:05:42.609Z,15.71
2022-09-16T08:07:44.747Z,15.75
2022-09-16T08:09:50.966Z,15.80
2022-09-16T08:11:55.171Z,15.76
2022-09-16T08:14:00.239Z,15.78
2022-09-16T08:16:07.734Z,15.83
2022-09-16T08:18:10.128Z,15.82
2022-09-16T08:22:14.357Z,15.71
2022-09-16T08:24:17.176Z,15.81
2022-09-16T08:26:19.809Z,15.85
2022-09-16T08:28:22.065Z,15.90
2022-09-16T08:32:29.574Z,15.96
2022-09-16T08:36:45.609Z,16.07
2022-09-16T08:38:49.635Z,16.13
2022-09-16T08:40:55.972Z,16.20
2022-09-16T08:49:20.674Z,16.39
2022-09-16T08:51:23.547Z,16.40
2022-09-16T08:53:28.911Z,16.50
2022-09-16T08:55:35.806Z,16.48
2022-09-16T08:59:48.214Z,16.54
2022-09-16T09:01:53.798Z,16.60
2022-09-16T09:03:56.678Z,16.62
2022-09-16T09:10:20.790Z,16.72
2022-09-16T09:12:27.164Z,16.76
2022-09-16T09:16:53.535Z,16.75
2022-09-16T09:18:58.981Z,16.83
2022-09-16T09:21:07.855Z,16.85
2022-09-16T09:23:16.589Z,16.91
2022-09-16T09:25:23.209Z,16.85
2022-09-16T09:27:29.723Z,16.93
2022-09-16T09:29:38.314Z,16.87
2022-09-16T09:36:03.101Z,16.95
2022-09-16T09:38:09.507Z,17.01
2022-09-16T09:40:15.101Z,17.01
2022-09-16T09:42:23.743Z,17.04
2022-09-16T09:44:32.359Z,17.03
2022-09-16T09:46:41.493Z,17.07
2022-09-16T09:48:51.002Z,17.05
2022-09-16T09:50:54.370Z,17.15
2022-09-16T09:53:12.616Z,17.18
2022-09-16T09:55:20.096Z,17.07
2022-09-16T09:57:26.536Z,17.18
2022-09-16T09:59:31.852Z,17.26
2022-09-16T10:01:34.014Z,17.34
2022-09-16T10:03:38.447Z,17.35
2022-09-16T10:05:40.987Z,17.50
2022-09-16T10:07:43.358Z,17.63
2022-09-16T10:09:52.592Z,17.62
2022-09-16T10:11:55.923Z,17.80
2022-09-16T10:14:01.011Z,17.96
2022-09-16T10:16:14.986Z,18.08
2022-09-16T10:18:27.027Z,18.13
2022-09-16T10:20:38.903Z,18.23
2022-09-16T10:22:41.017Z,18.38
2022-09-16T10:26:44.289Z,18.60
2022-09-16T10:29:00.357Z,18.77
2022-09-16T10:31:03.382Z,18.86
2022-09-16T10:35:21.745Z,19.00
2022-09-16T10:39:32.553Z,19.08
2022-09-16T10:41:43.676Z,19.12
2022-09-16T10:43:49.854Z,19.10
2022-09-16T10:45:56.485Z,19.10
2022-09-16T10:50:07.784Z,19.00
2022-09-16T10:52:17.738Z,18.99
2022-09-16T10:56:29.854Z,18.95
2022-09-16T10:58:32.298Z,18.89
2022-09-16T11:00:51.227Z,18.88
2022-09-16T11:03:07.271Z,19.10
2022-09-16T11:05:17.080Z,19.22
2022-09-16T11:07:29.818Z,19.14
2022-09-16T11:09:32.422Z,19.39
2022-09-16T11:11:43.801Z,19.51
2022-09-16T11:13:49.293Z,19.59
2022-09-16T11:16:01.883Z,19.41
2022-09-16T11:18:08.808Z,19.36
2022-09-16T11:20:17.680Z,19.38
2022-09-16T11:22:28.887Z,19.40
2022-09-16T11:24:37.090Z,19.48
2022-09-16T11:26:43.355Z,19.59
2022-09-16T11:31:07.678Z,19.70
2022-09-16T11:33:20.641Z,19.91
2022-09-16T11:39:47.211Z,20.27
2022-09-16T11:41:55.908Z,20.34
2022-09-16T11:43:59.080Z,20.57
2022-09-16T11:46:04.614Z,20.61
2022-09-16T11:48:18.018Z,20.63
2022-09-16T11:52:30.398Z,20.88
2022-09-16T11:54:38.646Z,20.97
2022-09-16T11:56:44.954Z,20.94
2022-09-16T11:58:57.633Z,20.92
2022-09-16T12:01:06.865Z,20.97
2022-09-16T12:03:24.323Z,20.94
2022-09-16T12:05:28.225Z,20.94
2022-09-16T12:07:37.594Z,20.90
2022-09-16T12:09:47.676Z,20.87
2022-09-16T12:11:55.845Z,20.87
2022-09-16T12:14:06.440Z,20.92
2022-09-16T12:16:14.233Z,20.96
2022-09-16T12:20:44.183Z,21.30
2022-09-16T12:22:55.105Z,21.28
2022-09-16T12:25:08.267Z,21.29
2022-09-16T12:27:28.094Z,21.05
2022-09-16T12:29:38.688Z,20.93
2022-09-16T12:34:03.191Z,20.89
2022-09-16T12:36:08.608Z,21.04
2022-09-16T12:38:13.984Z,21.00
2022-09-16T12:40:26.504Z,20.93
2022-09-16T12:42:32.924Z,20.94
2022-09-16T12:44:38.285Z,20.91
2022-09-16T12:46:43.275Z,20.93
2022-09-16T12:50:59.509Z,20.99
2022-09-16T12:53:12.230Z,20.94
2022-09-16T12:55:16.529Z,20.95
2022-09-16T12:57:24.552Z,20.97
2022-09-16T12:59:32.551Z,20.94
2022-09-16T13:03:43.880Z,20.83
2022-09-16T13:05:50.540Z,20.66
2022-09-16T13:07:56.111Z,20.51
2022-09-16T13:10:02.362Z,20.57
2022-09-16T13:12:35.298Z,20.70
2022-09-16T13:14:34.372Z,20.78
2022-09-16T13:16:37.609Z,20.99
2022-09-16T13:18:43.123Z,21.12
2022-09-16T13:20:50.908Z,21.27
2022-09-16T13:22:56.204Z,21.39
2022-09-16T13:25:06.963Z,21.40
2022-09-16T13:27:15.249Z,21.64
2022-09-16T13:29:23.371Z,21.69
2022-09-16T13:33:32.653Z,21.53
2022-09-16T13:35:37.826Z,21.46
2022-09-16T13:37:40.773Z,21.56
2022-09-16T13:41:46.675Z,21.81
2022-09-16T13:43:51.606Z,21.89
2022-09-16T13:46:11.533Z,21.99
2022-09-16T13:48:18.827Z,21.83
2022-09-16T13:50:25.876Z,21.81
2022-09-16T13:52:30.934Z,21.70
2022-09-16T13:55:06.304Z,21.56
2022-09-16T13:56:50.479Z,21.41
2022-09-16T13:58:56.166Z,21.45
2022-09-16T14:01:04.236Z,21.38
2022-09-16T14:05:20.265Z,21.45
2022-09-16T14:07:32.065Z,21.47
2022-09-16T14:11:50.084Z,21.58
2022-09-16T14:14:05.575Z,21.72
2022-09-16T14:16:16.169Z,21.84
2022-09-16T14:22:34.326Z,22.42
2022-09-16T14:24:39.038Z,22.54
2022-09-16T14:26:50.533Z,22.63
2022-09-16T14:29:02.399Z,22.79
2022-09-16T14:31:10.009Z,22.83
2022-09-16T14:33:13.610Z,22.97
2022-09-16T14:35:17.725Z,22.93
2022-09-16T14:39:25.898Z,23.20
2022-09-16T14:41:34.102Z,23.32
2022-09-16T14:45:47.431Z,23.67
2022-09-16T14:47:53.248Z,23.76
2022-09-16T14:50:05.566Z,23.89
2022-09-16T14:52:17.029Z,23.65
2022-09-16T14:54:21.949Z,23.84
2022-09-16T14:56:25.220Z,23.68
2022-09-16T14:58:29.720Z,23.37
2022-09-16T15:01:06.527Z,23.14
2022-09-16T15:03:20.495Z,22.94
2022-09-16T15:05:34.846Z,22.73
2022-09-16T15:07:50.866Z,22.53
2022-09-16T15:10:51.499Z,22.32
2022-09-16T15:13:09.651Z,22.47
2022-09-16T15:15:19.806Z,22.67
2022-09-16T15:17:27.104Z,22.75
2022-09-16T15:19:37.403Z,22.84
2022-09-16T15:21:39.339Z,22.91
2022-09-16T15:23:45.359Z,23.02
2022-09-16T15:25:57.113Z,22.92
2022-09-16T15:28:17.014Z,22.69
2022-09-16T15:30:34.577Z,22.50
2022-09-16T15:32:44.559Z,22.46
2022-09-16T15:34:46.790Z,22.65
2022-09-16T15:36:51.051Z,22.64
2022-09-16T15:38:57.714Z,22.62
2022-09-16T15:41:05.674Z,22.71
2022-09-16T15:43:07.225Z,22.79
2022-09-16T15:45:19.982Z,22.81
2022-09-16T15:47:27.260Z,22.86
2022-09-16T15:49:36.521Z,22.83
2022-09-16T15:51:55.006Z,22.77
2022-09-16T15:54:05.977Z,22.81
2022-09-16T15:56:28.420Z,22.74
2022-09-16T15:58:32.819Z,22.71
2022-09-16T16:01:13.642Z,22.80
2022-09-16T16:03:20.605Z,22.77
2022-09-16T16:05:25.764Z,22.62
2022-09-16T16:07:47.442Z,22.54
2022-09-16T16:09:50.168Z,22.39
2022-09-16T16:12:01.195Z,22.30
2022-09-16T16:14:03.099Z,22.21
2022-09-16T16:16:06.155Z,22.17
2022-09-16T16:18:10.866Z,22.12
2022-09-16T16:20:14.895Z,21.97
2022-09-16T16:22:17.651Z,21.98
2022-09-16T16:24:22.345Z,21.88
2022-09-16T16:26:24.690Z,21.86
2022-09-16T16:28:27.069Z,21.80
2022-09-16T16:30:41.889Z,21.70
2022-09-16T16:32:44.602Z,21.65
2022-09-16T16:34:50.375Z,21.43
2022-09-16T16:36:52.991Z,21.29
2022-09-16T16:38:54.828Z,21.14
2022-09-16T16:40:56.442Z,21.18
2022-09-16T16:42:58.114Z,21.03
2022-09-16T16:44:59.856Z,20.83
2022-09-16T16:47:01.803Z,20.85
2022-09-16T16:49:04.963Z,20.71
2022-09-16T16:51:10.285Z,20.65
2022-09-16T16:53:12.073Z,20.51
2022-09-16T16:55:13.799Z,20.44
2022-09-16T16:57:15.455Z,20.35
2022-09-16T16:59:18.286Z,20.22
2022-09-16T17:01:20.792Z,20.18
2022-09-16T17:03:22.801Z,20.12
2022-09-16T17:05:24.531Z,20.09
2022-09-16T17:07:27.718Z,19.99
2022-09-16T17:09:29.782Z,19.87
2022-09-16T17:11:31.906Z,19.78
2022-09-16T17:13:34.245Z,19.69
2022-09-16T17:15:36.047Z,19.58
2022-09-16T17:17:37.881Z,19.40
2022-09-16T17:19:39.520Z,19.42
2022-09-16T17:21:41.292Z,19.21
2022-09-16T17:23:43.488Z,19.14
2022-09-16T17:25:50.569Z,19.09
2022-09-16T17:27:52.220Z,19.08
2022-09-16T17:29:53.995Z,19.02
2022-09-16T17:31:57.202Z,19.01
2022-09-16T17:34:05.519Z,18.97
2022-09-16T17:36:08.969Z,18.80
2022-09-16T17:38:10.973Z,18.89
2022-09-16T17:40:12.675Z,18.69
2022-09-16T17:42:14.551Z,18.73
2022-09-16T17:44:17.911Z,18.70
2022-09-16T17:46:20.403Z,18.67
2022-09-16T17:48:22.342Z,18.63
2022-09-16T17:50:24.016Z,18.57
2022-09-16T17:52:26.763Z,18.48
2022-09-16T17:54:29.141Z,18.51
2022-09-16T17:56:30.790Z,18.47
2022-09-16T17:58:33.269Z,18.32
2022-09-16T18:00:36.785Z,18.32
2022-09-16T18:02:38.556Z,18.28
2022-09-16T18:04:43.523Z,18.13
2022-09-16T18:06:46.876Z,18.14
2022-09-16T18:08:49.651Z,18.17
2022-09-16T18:10:54.346Z,18.09
2022-09-16T18:12:58.227Z,17.99
2022-09-16T18:14:59.933Z,18.03
2022-09-16T18:17:01.674Z,17.96
2022-09-16T18:19:04.092Z,17.96
2022-09-16T18:21:07.972Z,17.85
2022-09-16T18:23:09.857Z,17.80
2022-09-16T18:25:11.589Z,17.80
2022-09-16T18:27:13.408Z,17.79
2022-09-16T18:29:15.617Z,17.83
2022-09-16T18:31:19.699Z,17.72
2022-09-16T18:33:21.377Z,17.74
2022-09-16T18:35:22.993Z,17.70
2022-09-16T18:37:24.831Z,17.65
2022-09-16T18:39:26.455Z,17.63
2022-09-16T18:41:35.655Z,17.58
2022-09-16T18:43:38.915Z,17.58
2022-09-16T18:45:40.899Z,17.46
2022-09-16T18:47:42.643Z,17.45
2022-09-16T18:49:44.377Z,17.44
2022-09-16T18:51:51.896Z,17.36
2022-09-16T18:53:57.847Z,17.40
2022-09-16T18:56:00.001Z,17.33
2022-09-16T18:58:01.824Z,17.35
2022-09-16T19:00:05.065Z,17.32
2022-09-16T19:02:10.344Z,17.30
2022-09-16T19:04:12.836Z,17.28
2022-09-16T19:06:14.512Z,17.23
2022-09-16T19:08:16.130Z,17.24
2022-09-16T19:10:17.943Z,17.25
2022-09-16T19:12:19.563Z,17.23
2022-09-16T19:14:24.724Z,17.19
2022-09-16T19:16:27.378Z,17.22
2022-09-16T19:18:29.137Z,17.21
2022-09-16T19:20:34.080Z,17.20
2022-09-16T19:22:36.346Z,17.16
2022-09-16T19:24:38.644Z,17.14
2022-09-16T19:26:41.477Z,17.12
2022-09-16T19:28:43.319Z,17.08
2022-09-16T19:30:45.416Z,17.07
2022-09-16T19:32:47.115Z,17.01
2022-09-16T19:34:48.779Z,16.95
2022-09-16T19:36:56.498Z,16.94
2022-09-16T19:39:00.157Z,16.94
2022-09-16T19:41:03.748Z,16.92
2022-09-16T19:43:05.368Z,16.93
2022-09-16T19:45:07.837Z,16.92
2022-09-16T19:47:14.008Z,16.87
2022-09-16T19:49:19.796Z,16.83
2022-09-16T19:51:23.883Z,16.82
2022-09-16T19:53:26.392Z,16.81
2022-09-16T19:55:28.012Z,16.79
2022-09-16T19:57:29.652Z,16.75
2022-09-16T19:59:31.474Z,16.72
2022-09-16T20:01:34.861Z,16.73
2022-09-16T20:03:38.066Z,16.66
2022-09-16T20:05:39.738Z,16.66
2022-09-16T20:07:41.411Z,16.56
2022-09-16T20:09:47.462Z,16.53
2022-09-16T20:11:49.487Z,16.53
2022-09-16T20:13:56.910Z,16.49
2022-09-16T20:15:59.018Z,16.47
2022-09-16T20:18:00.723Z,16.44
2022-09-16T20:20:02.478Z,16.43
2022-09-16T20:22:04.235Z,16.39
2022-09-16T20:24:08.009Z,16.40
2022-09-16T20:26:12.073Z,16.38
2022-09-16T20:28:13.703Z,16.32
2022-09-16T20:30:15.346Z,16.31
2022-09-16T20:32:16.991Z,16.28
2022-09-16T20:34:18.594Z,16.28
2022-09-16T20:36:23.669Z,16.25
2022-09-16T20:38:25.459Z,16.27
2022-09-16T20:40:38.209Z,16.24
2022-09-16T20:42:39.900Z,16.22
2022-09-16T20:44:42.097Z,16.21
2022-09-16T20:46:49.167Z,16.19
2022-09-16T20:48:54.780Z,16.12
2022-09-16T20:50:56.621Z,16.13
2022-09-16T20:52:59.854Z,16.09
2022-09-16T20:55:06.286Z,16.06
2022-09-16T20:57:08.127Z,16.03
2022-09-16T20:59:12.595Z,16.03
2022-09-16T21:01:18.899Z,16.03
2022-09-16T21:03:20.632Z,16.03
2022-09-16T21:05:22.575Z,15.96
2022-09-16T21:07:24.200Z,15.92
2022-09-16T21:09:26.094Z,15.90
2022-09-16T21:11:30.046Z,15.83
2022-09-16T21:13:31.857Z,15.84
2022-09-16T21:15:33.516Z,15.88
2022-09-16T21:17:35.419Z,15.77
2022-09-16T21:19:37.145Z,15.75
2022-09-16T21:21:41.231Z,15.78
2022-09-16T21:23:45.645Z,15.72
2022-09-16T21:25:47.814Z,15.74
2022-09-16T21:27:49.419Z,15.69
2022-09-16T21:29:52.342Z,15.62
2022-09-16T21:31:54.188Z,15.65
2022-09-16T21:33:57.373Z,15.67
2022-09-16T21:35:59.746Z,15.66
2022-09-16T21:38:01.369Z,15.60
2022-09-16T21:40:04.767Z,15.62
2022-09-16T21:42:06.567Z,15.57
2022-09-16T21:44:08.836Z,15.53
2022-09-16T21:46:12.566Z,15.48
2022-09-16T21:48:16.447Z,15.51
2022-09-16T21:50:18.098Z,15.43
2022-09-16T21:52:20.614Z,15.43
2022-09-16T21:54:23.111Z,15.42
2022-09-16T21:56:24.863Z,15.42
2022-09-16T21:58:26.478Z,15.40
2022-09-16T22:00:28.135Z,15.36
2022-09-16T22:02:30.276Z,15.34
2022-09-16T22:04:31.955Z,15.29
2022-09-16T22:06:34.428Z,15.22
2022-09-16T22:08:36.559Z,15.24
2022-09-16T22:10:39.197Z,15.22
2022-09-16T22:12:40.878Z,15.24
2022-09-16T22:14:51.039Z,15.17
2022-09-16T22:16:53.157Z,15.20
2022-09-16T22:18:57.233Z,15.15
2022-09-16T22:21:07.711Z,15.14
2022-09-16T22:23:09.781Z,15.09
2022-09-16T22:25:11.901Z,15.11
2022-09-16T22:27:14.113Z,15.10
2022-09-16T22:29:16.475Z,15.09
2022-09-16T22:31:24.172Z,15.07
2022-09-16T22:33:26.561Z,15.05
2022-09-16T22:35:29.483Z,15.00
2022-09-16T22:37:31.829Z,15.01
2022-09-16T22:39:34.742Z,15.04
2022-09-16T22:41:37.527Z,15.05
2022-09-16T22:43:42.855Z,15.05
2022-09-16T22:45:46.450Z,15.03
2022-09-16T22:47:48.489Z,14.98
2022-09-16T22:49:50.789Z,14.94
2022-09-16T22:51:52.899Z,14.95
2022-09-16T22:53:55.748Z,14.96
2022-09-16T22:55:59.409Z,14.96
2022-09-16T22:58:01.466Z,14.96
2022-09-16T23:00:04.154Z,14.95
2022-09-16T23:02:06.511Z,14.95
2022-09-16T23:04:10.072Z,14.91
2022-09-16T23:06:14.556Z,14.92
2022-09-16T23:08:16.605Z,14.92
2022-09-16T23:10:18.749Z,14.84
2022-09-16T23:12:20.442Z,14.85
2022-09-16T23:14:24.994Z,14.86
2022-09-16T23:16:36.711Z,14.85
2022-09-16T23:18:39.149Z,14.79
2022-09-16T23:20:41.141Z,14.78
2022-09-16T23:22:43.349Z,14.79
2022-09-16T23:24:45.568Z,14.83
2022-09-16T23:26:48.341Z,14.84
2022-09-16T23:28:59.852Z,14.80
2022-09-16T23:31:11.455Z,14.77
2022-09-16T23:33:13.997Z,14.72
2022-09-16T23:35:17.558Z,14.66
2022-09-16T23:37:19.713Z,14.59
2022-09-16T23:39:21.711Z,14.57
2022-09-16T23:41:27.854Z,14.59
2022-09-16T23:43:30.345Z,14.53
2022-09-16T23:45:34.924Z,14.52
2022-09-16T23:47:36.963Z,14.43
2022-09-16T23:49:38.990Z,14.43
2022-09-16T23:51:40.967Z,14.35
2022-09-16T23:53:43.098Z,14.43
2022-09-16T23:55:45.521Z,14.37
2022-09-16T23:57:48.020Z,14.35
2022-09-16T23:59:50.126Z,14.36
